Aérodrome :
LOGIN :

S'inscrire | Disclaimer

   EN    FR    IT 

 










Légende :    VFR   VFR Marginal   IFR   IFR Intensif   IFR Très Intensif
Visi : 
Plafond : 
>= 8 km
>= 3000ft
5 à 8 km
1000 à 3000 ft
1500m à 5 km
500 à 1000 ft
800 à 1500m
200 à 500 ft
< 800m
< 200 ft
Symboles :   Orages  Brouillard  Fortes neiges  Fortes précipitations  Vent > 20 kt
SIGMETs :   Divers  Orages  Givrage  Turbulence  Onde Orograph.  Cendres Volcan.







- Altitude de l'aérodrome : 1090 ft
- Code IATA : CFE
- Voir les cartes d'approche


LFLC - Clermont-Ferrand Auvergne

DERNIER METAR :
  • 162200Z AUTO 17003KT 9999 SCT023 BKN050 BKN090 01/M00 Q1024 TEMPO 4000 -SHRASN BKN009

METARs EXPIRÉS :
  • 162130Z AUTO VRB03KT 9999 -SNRA SCT010 BKN019 BKN028 01/M00 Q1023 TEMPO 4000 -SHRASN BKN009
  • 162100Z AUTO 00000KT 9999 FEW022 BKN043 BKN049 02/M01 Q1023 TEMPO 4000 -SHRASN BKN009
  • 162030Z AUTO 00000KT 9999 FEW033 SCT047 OVC054 02/M01 Q1023 TEMPO 4000 -SHRASN BKN009
  • 162000Z AUTO 36004KT 330V050 9999 SCT031 BKN045 OVC058 03/M01 Q1023 TEMPO OVC010
  • 161930Z AUTO 30004KT 9999 SCT033 BKN045 03/M02 Q1023 TEMPO OVC010

TAF TAF LFLC
Valide du 16 à 21h jusqu'au 17 à 21h UTC


162000Z 1621/1721 34005KT 9999 SCT030 BKN045
PROB30
TEMPO 1621/1623 4000 -SHRASN BKN009
PROB40
TEMPO 1703/1710 3500 -SHSNRA SCT006 OVC012
ATIS : +33 4 73 62 74 38
Pas de NOTAMs connus pour ce terrain.
1 SIGMET publié pour la FIR Marseille (LFMM) :
 
Turbulence forte
LFMM SIGMET 7 VALID 162000/162300 LFPW
LFMM MARSEILLE FIR/UIR SEV TURB FCST WI N4115 E00430 - N4200 E00430 - N4215 E00230 - N4330 E00245 - N4415 E00330 - N4415 E00515 - N4100 E00715 - N4115 E00430 SFC/FL050 STNR NC=



MET'MAP, la Météo Aéronautique d'un coup d'oeil ! - Copyright ORBIFLY Décembre 2007 - Disclaimer

ORBIFLY MET'MAP TEAM :

Programmation & Développement : Alexandra Zaïnal
Conception & Développement : Baudouin d'Aumeries
Co-Programmation & Développement : Marc-Olivier Méhu
Soutien technique & logistique : Manuel Goepfert

Contact : metmap@orbifly.com




SOURCES & CREDITS :

   NOAA